Time;durP1;ratioP1;P1;durP2;ratioP2;P2;SDS_P1;SDS_P2;PMS_P1;PMS_P2;Temp;Humidity;BMP_temperature;BMP_pressure;BME280_temperature;BME280_humidity;BME280_pressure;Samples;Min_cycle;Max_cycle;Signal;HPM_P1;HPM_P2
2021/10/11 00:02:07;;;;;;;;;;;;;;;;;;5049011;28;20300;-63
2021/10/11 00:04:34;;;;;;;;;;;;;;;;;;5048955;28;19932;-62
2021/10/11 00:07:01;;;;;;;;;;;;;;;;;;5048438;28;20373;-62
2021/10/11 00:09:28;;;;;;;;;;;;;;;;;;5048392;28;19924;-63
2021/10/11 00:11:55;;;;;;;;;;;;;;;;;;5046720;28;19929;-62
2021/10/11 00:14:22;;;;;;;;;;;;;;;;;;5046607;28;19924;-62
2021/10/11 00:16:48;;;;;;;;;;;;;;;;;;5041832;28;19925;-62
2021/10/11 00:19:15;;;;;;;;;;;;;;;;;;5049299;28;20123;-61
2021/10/11 00:21:42;;;;;;;;;;;;;;;;;;5047627;28;19925;-62
2021/10/11 00:24:09;;;;;;;;;;;;;;;;;;5048447;28;19944;-61
2021/10/11 00:26:36;;;;;;;;;;;;;;;;;;5047152;28;19943;-64
2021/10/11 00:29:03;;;;;;;;;;;;;;;;;;5048356;28;19936;-62
2021/10/11 00:31:30;;;;;;;;;;;;;;;;;;5049638;28;19924;-63
2021/10/11 00:33:57;;;;;;;;;;;;;;;;;;5047162;28;19932;-62
2021/10/11 00:36:24;;;;;;;;;;;;;;;;;;5048020;28;19932;-64
2021/10/11 00:38:51;;;;;;;;;;;;;;;;;;5048454;28;19925;-64
2021/10/11 00:41:18;;;;;;;;;;;;;;;;;;5049633;28;19928;-63
2021/10/11 00:43:47;;;;;;;;;;;;;;;;;;5048649;28;19929;-63
2021/10/11 00:46:14;;;;;;;;;;;;;;;;;;5048368;28;20008;-62
2021/10/11 00:48:41;;;;;;;;;;;;;;;;;;5049582;28;19925;-63
2021/10/11 00:51:08;;;;;;;;;;;;;;;;;;5049167;28;19932;-63
2021/10/11 00:53:35;;;;;;;;;;;;;;;;;;5046388;28;19925;-63
2021/10/11 00:56:01;;;;;;;;;;;;;;;;;;5049761;28;20304;-63
2021/10/11 00:58:28;;;;;;;;;;;;;;;;;;5048508;28;19935;-63
2021/10/11 01:00:55;;;;;;;;;;;;;;;;;;5048890;28;19929;-62
2021/10/11 01:03:22;;;;;;;;;;;;;;;;;;5048014;28;20376;-63
2021/10/11 01:05:49;;;;;;;;;;;;;;;;;;5049036;28;20305;-63
2021/10/11 01:08:16;;;;;;;;;;;;;;;;;;5050338;28;19976;-63
2021/10/11 01:10:43;;;;;;;;;;;;;;;;;;5048114;28;19929;-63
2021/10/11 01:13:10;;;;;;;;;;;;;;;;;;5048280;28;20387;-63
2021/10/11 01:15:37;;;;;;;;;;;;;;;;;;5048807;28;19924;-64
2021/10/11 01:18:04;;;;;;;;;;;;;;;;;;5050097;28;19931;-62
2021/10/11 01:20:31;;;;;;;;;;;;;;;;;;5043958;28;19931;-63
2021/10/11 01:22:58;;;;;;;;;;;;;;;;;;5047553;28;20284;-63
2021/10/11 01:25:25;;;;;;;;;;;;;;;;;;5050055;28;19947;-61
2021/10/11 01:27:52;;;;;;;;;;;;;;;;;;5047865;28;19924;-62
2021/10/11 01:30:19;;;;;;;;;;;;;;;;;;5048128;28;19924;-62
2021/10/11 01:32:46;;;;;;;;;;;;;;;;;;5046735;28;20006;-60
2021/10/11 01:35:13;;;;;;;;;;;;;;;;;;5049179;28;19935;-61
2021/10/11 01:37:42;;;;;;;;;;;;;;;;;;5046391;28;19932;-61
2021/10/11 01:40:09;;;;;;;;;;;;;;;;;;5048440;28;20052;-60
2021/10/11 01:42:36;;;;;;;;;;;;;;;;;;5047509;28;19925;-62
2021/10/11 01:45:03;;;;;;;;;;;;;;;;;;5048726;28;19925;-64
2021/10/11 01:47:29;;;;;;;;;;;;;;;;;;5048265;28;19928;-62
2021/10/11 01:49:56;;;;;;;;;;;;;;;;;;5046778;28;19948;-62
2021/10/11 01:52:24;;;;;;;;;;;;;;;;;;5047444;28;20059;-62
2021/10/11 01:54:51;;;;;;;;;;;;;;;;;;5045389;28;19932;-61
2021/10/11 01:57:18;;;;;;;;;;;;;;;;;;5047387;28;19925;-62
2021/10/11 01:59:45;;;;;;;;;;;;;;;;;;5049432;28;19973;-63
2021/10/11 02:02:12;;;;;;;;;;;;;;;;;;5044604;28;19940;-61
2021/10/11 02:04:39;;;;;;;;;;;;;;;;;;5048833;28;19932;-62
2021/10/11 02:07:05;;;;;;;;;;;;;;;;;;5052190;28;19929;-62
2021/10/11 02:09:32;;;;;;;;;;;;;;;;;;5045761;28;19928;-63
2021/10/11 02:11:59;;;;;;;;;;;;;;;;;;5050749;28;19931;-62
2021/10/11 02:14:26;;;;;;;;;;;;;;;;;;5051773;28;19925;-63
2021/10/11 02:16:54;;;;;;;;;;;;;;;;;;5052172;28;19928;-62
2021/10/11 02:19:21;;;;;;;;;;;;;;;;;;5047075;28;19979;-62
2021/10/11 02:21:47;;;;;;;;;;;;;;;;;;5048959;28;19925;-62
2021/10/11 02:24:14;;;;;;;;;;;;;;;;;;5051024;28;19924;-63
2021/10/11 02:26:41;;;;;;;;;;;;;;;;;;5051790;28;19925;-61
2021/10/11 02:29:09;;;;;;;;;;;;;;;;;;5047799;28;19931;-63
2021/10/11 02:31:36;;;;;;;;;;;;;;;;;;5050751;28;19937;-62
2021/10/11 02:34:03;;;;;;;;;;;;;;;;;;5050829;28;19929;-62
2021/10/11 02:36:30;;;;;;;;;;;;;;;;;;5049100;28;19931;-62
2021/10/11 02:38:57;;;;;;;;;;;;;;;;;;5050912;28;19924;-60
2021/10/11 02:41:24;;;;;;;;;;;;;;;;;;5048934;28;20388;-61
2021/10/11 02:43:51;;;;;;;;;;;;;;;;;;5050214;28;19924;-62
2021/10/11 02:46:18;;;;;;;;;;;;;;;;;;5051211;28;19929;-62
2021/10/11 02:48:45;;;;;;;;;;;;;;;;;;5050080;28;20408;-62
2021/10/11 02:51:12;;;;;;;;;;;;;;;;;;5051187;28;19929;-63
2021/10/11 02:53:39;;;;;;;;;;;;;;;;;;5051694;28;20300;-62
2021/10/11 02:56:06;;;;;;;;;;;;;;;;;;5051972;28;20500;-61
2021/10/11 02:58:33;;;;;;;;;;;;;;;;;;5051950;28;19925;-62
2021/10/11 03:01:00;;;;;;;;;;;;;;;;;;5050246;28;19931;-63
2021/10/11 03:03:26;;;;;;;;;;;;;;;;;;5051035;28;19925;-63
2021/10/11 03:05:53;;;;;;;;;;;;;;;;;;5051808;28;19929;-59
2021/10/11 03:08:20;;;;;;;;;;;;;;;;;;5051571;28;19948;-63
2021/10/11 03:10:47;;;;;;;;;;;;;;;;;;5046026;28;19929;-62
2021/10/11 03:13:14;;;;;;;;;;;;;;;;;;5049955;28;19936;-62
2021/10/11 03:15:41;;;;;;;;;;;;;;;;;;5051767;28;19925;-62
2021/10/11 03:18:08;;;;;;;;;;;;;;;;;;5046763;28;19925;-62
2021/10/11 03:20:35;;;;;;;;;;;;;;;;;;5051883;28;19931;-62
2021/10/11 03:23:02;;;;;;;;;;;;;;;;;;5050517;28;19925;-62
2021/10/11 03:25:29;;;;;;;;;;;;;;;;;;5051884;28;19925;-63
2021/10/11 03:27:56;;;;;;;;;;;;;;;;;;5048239;28;19925;-63
2021/10/11 03:30:23;;;;;;;;;;;;;;;;;;5050642;28;19929;-63
2021/10/11 03:32:50;;;;;;;;;;;;;;;;;;5048357;28;20543;-62
2021/10/11 03:35:17;;;;;;;;;;;;;;;;;;5048052;28;19932;-62
2021/10/11 03:37:44;;;;;;;;;;;;;;;;;;5050243;28;19928;-63
2021/10/11 03:40:11;;;;;;;;;;;;;;;;;;5050779;28;19933;-63
2021/10/11 03:42:38;;;;;;;;;;;;;;;;;;5051453;28;20027;-61
2021/10/11 03:45:05;;;;;;;;;;;;;;;;;;5063019;28;20115;-60
2021/10/11 03:47:32;;;;;;;;;;;;;;;;;;5062239;28;19965;-62
2021/10/11 03:49:59;;;;;;;;;;;;;;;;;;5061112;28;20098;-62
2021/10/11 03:52:26;;;;;;;;;;;;;;;;;;5059391;28;19950;-63
2021/10/11 03:54:53;;;;;;;;;;;;;;;;;;5062738;28;19925;-61
2021/10/11 03:57:20;;;;;;;;;;;;;;;;;;5061121;28;19988;-60
2021/10/11 03:59:47;;;;;;;;;;;;;;;;;;5057013;28;19992;-62
2021/10/11 04:02:14;;;;;;;;;;;;;;;;;;5062359;28;20194;-63
2021/10/11 04:04:41;;;;;;;;;;;;;;;;;;5061429;28;19925;-63
2021/10/11 04:07:10;;;;;;;;;;;;;;;;;;5062595;28;19924;-62
2021/10/11 04:09:38;;;;;;;;;;;;;;;;;;5055668;28;19975;-61
2021/10/11 04:12:16;;;;;;;;;;;;;;;;;;5058021;28;19935;-61
2021/10/11 04:14:44;;;;;;;;;;;;;;;;;;5061391;28;19964;-62
2021/10/11 04:17:11;;;;;;;;;;;;;;;;;;5061244;28;19932;-60
2021/10/11 04:19:38;;;;;;;;;;;;;;;;;;5058829;28;19952;-62
2021/10/11 04:22:05;;;;;;;;;;;;;;;;;;5060677;28;19925;-62
2021/10/11 04:24:32;;;;;;;;;;;;;;;;;;5061350;28;19977;-62
2021/10/11 04:26:59;;;;;;;;;;;;;;;;;;5059316;28;19979;-61
2021/10/11 04:29:26;;;;;;;;;;;;;;;;;;5061025;28;19931;-62
2021/10/11 04:31:53;;;;;;;;;;;;;;;;;;5060906;28;19933;-62
2021/10/11 04:34:20;;;;;;;;;;;;;;;;;;5058155;28;19925;-63
2021/10/11 04:36:47;;;;;;;;;;;;;;;;;;5061659;28;20418;-62
2021/10/11 04:39:14;;;;;;;;;;;;;;;;;;5061404;28;20237;-62
2021/10/11 04:41:41;;;;;;;;;;;;;;;;;;5061849;28;20001;-62
2021/10/11 04:44:08;;;;;;;;;;;;;;;;;;5061477;28;19931;-63
2021/10/11 04:46:35;;;;;;;;;;;;;;;;;;5056802;28;19925;-62
2021/10/11 04:49:04;;;;;;;;;;;;;;;;;;5062321;28;19925;-61
2021/10/11 04:51:31;;;;;;;;;;;;;;;;;;5060744;28;19932;-63
2021/10/11 04:53:58;;;;;;;;;;;;;;;;;;5062574;28;20004;-63
2021/10/11 04:56:25;;;;;;;;;;;;;;;;;;5060192;28;19929;-63
2021/10/11 04:58:52;;;;;;;;;;;;;;;;;;5056640;28;19967;-61
2021/10/11 05:01:20;;;;;;;;;;;;;;;;;;5058188;28;19999;-62
2021/10/11 05:03:47;;;;;;;;;;;;;;;;;;5060987;28;20320;-63
2021/10/11 05:06:14;;;;;;;;;;;;;;;;;;5063037;28;20291;-60
2021/10/11 05:08:41;;;;;;;;;;;;;;;;;;5062858;28;20308;-62
2021/10/11 05:11:08;;;;;;;;;;;;;;;;;;5061730;28;19932;-62
2021/10/11 05:13:35;;;;;;;;;;;;;;;;;;5061855;28;19928;-66
2021/10/11 05:16:02;;;;;;;;;;;;;;;;;;5065698;28;19971;-62
2021/10/11 05:18:29;;;;;;;;;;;;;;;;;;5057845;28;19929;-63
2021/10/11 05:20:58;;;;;;;;;;;;;;;;;;5058942;28;19928;-62
2021/10/11 05:23:25;;;;;;;;;;;;;;;;;;5059973;28;19981;-62
2021/10/11 05:25:52;;;;;;;;;;;;;;;;;;5060218;28;20347;-62
2021/10/11 05:28:19;;;;;;;;;;;;;;;;;;5056949;28;19984;-61
2021/10/11 05:30:48;;;;;;;;;;;;;;;;;;5058344;28;20213;-62
2021/10/11 05:33:16;;;;;;;;;;;;;;;;;;5055065;28;19968;-62
2021/10/11 05:35:43;;;;;;;;;;;;;;;;;;5057307;28;19924;-62
2021/10/11 05:38:10;;;;;;;;;;;;;;;;;;5054369;28;19924;-61
2021/10/11 05:40:37;;;;;;;;;;;;;;;;;;5057883;28;19936;-61
2021/10/11 05:43:04;;;;;;;;;;;;;;;;;;5057846;28;19931;-62
2021/10/11 05:45:31;;;;;;;;;;;;;;;;;;5058644;28;19929;-62
2021/10/11 05:47:58;;;;;;;;;;;;;;;;;;5059985;28;19925;-62
2021/10/11 05:50:25;;;;;;;;;;;;;;;;;;5059093;28;20202;-63
2021/10/11 05:52:51;;;;;;;;;;;;;;;;;;5056709;28;19929;-62
2021/10/11 05:55:18;;;;;;;;;;;;;;;;;;5058364;28;19925;-63
2021/10/11 05:57:45;;;;;;;;;;;;;;;;;;5057713;28;19950;-63
2021/10/11 06:00:13;;;;;;;;;;;;;;;;;;5058016;28;19925;-62
2021/10/11 06:02:40;;;;;;;;;;;;;;;;;;5059675;28;19931;-63
2021/10/11 06:05:07;;;;;;;;;;;;;;;;;;5057280;28;20316;-63
2021/10/11 06:07:34;;;;;;;;;;;;;;;;;;5058610;28;20114;-63
2021/10/11 06:10:01;;;;;;;;;;;;;;;;;;5054380;28;19925;-63
2021/10/11 06:12:28;;;;;;;;;;;;;;;;;;5057942;28;19924;-63
2021/10/11 06:14:55;;;;;;;;;;;;;;;;;;5058373;28;19928;-62
2021/10/11 06:17:22;;;;;;;;;;;;;;;;;;5054206;28;19992;-62
2021/10/11 06:19:49;;;;;;;;;;;;;;;;;;5056754;28;19931;-63
2021/10/11 06:22:16;;;;;;;;;;;;;;;;;;5045565;28;20016;-63
2021/10/11 06:24:43;;;;;;;;;;;;;;;;;;5063503;28;19925;-62
2021/10/11 06:27:10;;;;;;;;;;;;;;;;;;5058813;28;19913;-61
2021/10/11 06:29:37;;;;;;;;;;;;;;;;;;5065854;28;20527;-60
2021/10/11 06:32:04;;;;;;;;;;;;;;;;;;5067547;28;20227;-58
2021/10/11 06:34:31;;;;;;;;;;;;;;;;;;5067807;28;20294;-60
2021/10/11 06:36:58;;;;;;;;;;;;;;;;;;5067088;28;19971;-61
2021/10/11 06:39:25;;;;;;;;;;;;;;;;;;5063156;28;20411;-61
2021/10/11 06:41:52;;;;;;;;;;;;;;;;;;5055529;28;20292;-61
2021/10/11 06:44:18;;;;;;;;;;;;;;;;;;5037349;28;19933;-58
2021/10/11 06:46:46;;;;;;;;;;;;;;;;;;5043873;28;19925;-60
2021/10/11 06:49:13;;;;;;;;;;;;;;;;;;5049529;28;20233;-62
2021/10/11 06:51:40;;;;;;;;;;;;;;;;;;5053597;28;19931;-63
2021/10/11 06:54:07;;;;;;;;;;;;;;;;;;5043932;28;19925;-62
2021/10/11 06:56:34;;;;;;;;;;;;;;;;;;5054743;28;20024;-63
2021/10/11 06:59:01;;;;;;;;;;;;;;;;;;5054060;28;19931;-61
2021/10/11 07:01:28;;;;;;;;;;;;;;;;;;5055336;28;19933;-63
2021/10/11 07:03:55;;;;;;;;;;;;;;;;;;5047452;28;19971;-62
2021/10/11 07:06:24;;;;;;;;;;;;;;;;;;5056202;28;20019;-63
2021/10/11 07:08:51;;;;;;;;;;;;;;;;;;5052698;28;19933;-60
2021/10/11 07:11:18;;;;;;;;;;;;;;;;;;5055703;28;20393;-63
2021/10/11 07:13:45;;;;;;;;;;;;;;;;;;5051030;28;19929;-61
2021/10/11 07:16:12;;;;;;;;;;;;;;;;;;5050865;28;19939;-63
2021/10/11 07:18:39;;;;;;;;;;;;;;;;;;5052443;28;19943;-63
2021/10/11 07:21:06;;;;;;;;;;;;;;;;;;5056146;28;19925;-62
2021/10/11 07:23:33;;;;;;;;;;;;;;;;;;5056469;28;19932;-63
2021/10/11 07:26:00;;;;;;;;;;;;;;;;;;5057326;28;20280;-62
2021/10/11 07:28:27;;;;;;;;;;;;;;;;;;5052545;28;20024;-63
2021/10/11 07:30:54;;;;;;;;;;;;;;;;;;5056401;28;19925;-62
2021/10/11 07:33:21;;;;;;;;;;;;;;;;;;5056936;28;19931;-62
2021/10/11 07:35:48;;;;;;;;;;;;;;;;;;5056407;28;19956;-62
2021/10/11 07:38:15;;;;;;;;;;;;;;;;;;5053755;28;19935;-63
2021/10/11 07:40:42;;;;;;;;;;;;;;;;;;5056826;28;19935;-63
2021/10/11 07:43:09;;;;;;;;;;;;;;;;;;5052881;28;19931;-62
2021/10/11 07:45:36;;;;;;;;;;;;;;;;;;5052223;28;20028;-62
2021/10/11 07:48:03;;;;;;;;;;;;;;;;;;5052255;28;19931;-60
2021/10/11 07:50:30;;;;;;;;;;;;;;;;;;5054281;28;19940;-62
2021/10/11 07:52:57;;;;;;;;;;;;;;;;;;5058909;28;19928;-61
2021/10/11 07:55:24;;;;;;;;;;;;;;;;;;5052702;28;19933;-63
2021/10/11 07:57:51;;;;;;;;;;;;;;;;;;5059562;28;20011;-62
2021/10/11 08:00:19;;;;;;;;;;;;;;;;;;5057372;28;19928;-63
2021/10/11 08:02:46;;;;;;;;;;;;;;;;;;5054539;28;19931;-63
2021/10/11 08:05:14;;;;;;;;;;;;;;;;;;5056701;28;19932;-63
2021/10/11 08:07:41;;;;;;;;;;;;;;;;;;5057284;28;19929;-62
2021/10/11 08:10:10;;;;;;;;;;;;;;;;;;5053743;28;19940;-64
2021/10/11 08:12:37;;;;;;;;;;;;;;;;;;5058750;28;19931;-62
2021/10/11 08:15:04;;;;;;;;;;;;;;;;;;5056010;28;19925;-63
2021/10/11 08:17:31;;;;;;;;;;;;;;;;;;5059213;28;20024;-62
2021/10/11 08:19:58;;;;;;;;;;;;;;;;;;5056982;28;19933;-63
2021/10/11 08:22:25;;;;;;;;;;;;;;;;;;5057700;28;19937;-62
2021/10/11 08:24:52;;;;;;;;;;;;;;;;;;5052242;28;19944;-61
2021/10/11 08:27:19;;;;;;;;;;;;;;;;;;5051723;28;20027;-62
2021/10/11 08:29:51;;;;;;;;;;;;;;;;;;5057125;28;19925;-62
2021/10/11 08:32:18;;;;;;;;;;;;;;;;;;5058019;28;20292;-62
2021/10/11 08:34:44;;;;;;;;;;;;;;;;;;5058464;28;20383;-64
2021/10/11 08:37:11;;;;;;;;;;;;;;;;;;5059361;28;20016;-63
2021/10/11 08:39:38;;;;;;;;;;;;;;;;;;5059760;28;19925;-63
2021/10/11 08:42:05;;;;;;;;;;;;;;;;;;5056064;28;19932;-63
2021/10/11 08:44:32;;;;;;;;;;;;;;;;;;5055591;28;19933;-63
2021/10/11 08:46:59;;;;;;;;;;;;;;;;;;5054379;28;19992;-63
2021/10/11 08:49:26;;;;;;;;;;;;;;;;;;5054428;28;19925;-63
2021/10/11 08:51:53;;;;;;;;;;;;;;;;;;5053676;28;20381;-63
2021/10/11 08:54:20;;;;;;;;;;;;;;;;;;5052724;28;19924;-63
2021/10/11 08:56:47;;;;;;;;;;;;;;;;;;5045012;28;19925;-63
2021/10/11 08:59:14;;;;;;;;;;;;;;;;;;5048703;28;19929;-63
2021/10/11 09:01:41;;;;;;;;;;;;;;;;;;5048510;28;19936;-63
2021/10/11 09:04:08;;;;;;;;;;;;;;;;;;5054018;28;19931;-61
2021/10/11 09:06:35;;;;;;;;;;;;;;;;;;5050864;28;20027;-61
2021/10/11 09:09:02;;;;;;;;;;;;;;;;;;5052759;28;20419;-61
2021/10/11 09:11:29;;;;;;;;;;;;;;;;;;5050065;28;19937;-61
2021/10/11 09:13:57;;;;;;;;;;;;;;;;;;5053858;28;19933;-61
2021/10/11 09:16:29;;;;;;;;;;;;;;;;;;5052037;28;19968;-60
2021/10/11 09:18:58;;;;;;;;;;;;;;;;;;5050586;28;20343;-60
2021/10/11 09:21:25;;;;;;;;;;;;;;;;;;5055405;28;19956;-60
2021/10/11 09:23:52;;;;;;;;;;;;;;;;;;5051846;28;19929;-61
2021/10/11 09:26:21;;;;;;;;;;;;;;;;;;5048372;28;19932;-60
2021/10/11 09:28:50;;;;;;;;;;;;;;;;;;5055273;28;20435;-60
2021/10/11 09:31:17;;;;;;;;;;;;;;;;;;5058015;28;19925;-60
2021/10/11 09:33:44;;;;;;;;;;;;;;;;;;5060808;28;19932;-62
2021/10/11 09:36:11;;;;;;;;;;;;;;;;;;5054100;28;19928;-62
2021/10/11 09:38:38;;;;;;;;;;;;;;;;;;5051410;28;20286;-61
2021/10/11 09:41:05;;;;;;;;;;;;;;;;;;5054714;28;19992;-62
2021/10/11 09:43:32;;;;;;;;;;;;;;;;;;5067464;22;19929;-62
2021/10/11 09:45:59;;;;;;;;;;;;;;;;;;5043983;28;19951;-63
2021/10/11 09:48:26;;;;;;;;;;;;;;;;;;5045532;28;19929;-63
2021/10/11 09:50:53;;;;;;;;;;;;;;;;;;5046102;28;19939;-63
2021/10/11 09:53:23;;;;;;;;;;;;;;;;;;5039032;28;19925;-63
2021/10/11 09:55:53;;;;;;;;;;;;;;;;;;5019802;28;20286;-63
2021/10/11 09:58:20;;;;;;;;;;;;;;;;;;5013097;28;20413;-63
2021/10/11 10:00:47;;;;;;;;;;;;;;;;;;5027582;28;19932;-63
2021/10/11 10:03:14;;;;;;;;;;;;;;;;;;5025404;28;19926;-64
2021/10/11 10:05:41;;;;;;;;;;;;;;;;;;5025574;28;20023;-63
2021/10/11 10:08:08;;;;;;;;;;;;;;;;;;5024908;28;20286;-63
2021/10/11 10:10:35;;;;;;;;;;;;;;;;;;5025190;28;19925;-62
2021/10/11 10:13:02;;;;;;;;;;;;;;;;;;5022383;28;19932;-63
2021/10/11 10:15:29;;;;;;;;;;;;;;;;;;5020785;28;20311;-63
2021/10/11 10:17:56;;;;;;;;;;;;;;;;;;5022169;28;19933;-62
2021/10/11 10:20:23;;;;;;;;;;;;;;;;;;5022756;28;19926;-62
2021/10/11 10:22:51;;;;;;;;;;;;;;;;;;5021516;28;20522;-62
2021/10/11 10:25:18;;;;;;;;;;;;;;;;;;5026289;28;20372;-62
2021/10/11 10:27:47;;;;;;;;;;;;;;;;;;5028483;28;19925;-62
2021/10/11 10:30:14;;;;;;;;;;;;;;;;;;5026469;28;19929;-62
2021/10/11 10:32:41;;;;;;;;;;;;;;;;;;5027627;28;19932;-62
2021/10/11 10:35:08;;;;;;;;;;;;;;;;;;5027086;28;19929;-62
2021/10/11 10:37:35;;;;;;;;;;;;;;;;;;5026698;28;20372;-62
2021/10/11 10:40:02;;;;;;;;;;;;;;;;;;5028994;28;19925;-62
2021/10/11 10:42:30;;;;;;;;;;;;;;;;;;5027949;28;19932;-62
2021/10/11 10:44:57;;;;;;;;;;;;;;;;;;5025630;28;19933;-62
2021/10/11 10:47:24;;;;;;;;;;;;;;;;;;5028989;28;20008;-61
2021/10/11 10:49:51;;;;;;;;;;;;;;;;;;5028439;28;19936;-62
2021/10/11 10:52:17;;;;;;;;;;;;;;;;;;5026875;28;19924;-61
2021/10/11 10:54:44;;;;;;;;;;;;;;;;;;5023618;28;19933;-61
2021/10/11 10:57:13;;;;;;;;;;;;;;;;;;5023752;28;19941;-60
2021/10/11 10:59:40;;;;;;;;;;;;;;;;;;5018334;28;20348;-62
2021/10/11 11:02:07;;;;;;;;;;;;;;;;;;5028661;28;19925;-60
2021/10/11 11:04:34;;;;;;;;;;;;;;;;;;5028056;28;19931;-62
2021/10/11 11:07:04;;;;;;;;;;;;;;;;;;5026980;28;20250;-62
2021/10/11 11:09:31;;;;;;;;;;;;;;;;;;5025898;28;20340;-60
2021/10/11 11:11:58;;;;;;;;;;;;;;;;;;5024381;28;20321;-61
2021/10/11 11:14:25;;;;;;;;;;;;;;;;;;5028115;28;19929;-63
2021/10/11 11:16:52;;;;;;;;;;;;;;;;;;5028711;28;19936;-63
2021/10/11 11:19:19;;;;;;;;;;;;;;;;;;5027527;28;19952;-61
2021/10/11 11:21:46;;;;;;;;;;;;;;;;;;5026809;28;19943;-61
2021/10/11 11:24:13;;;;;;;;;;;;;;;;;;5024694;28;19925;-62
2021/10/11 11:26:40;;;;;;;;;;;;;;;;;;5026701;28;19933;-60
2021/10/11 11:29:07;;;;;;;;;;;;;;;;;;5026725;28;20343;-62
2021/10/11 11:31:34;;;;;;;;;;;;;;;;;;5022152;28;21252;-62
2021/10/11 11:34:01;;;;;;;;;;;;;;;;;;5028825;28;20324;-62
2021/10/11 11:36:28;;;;;;;;;;;;;;;;;;5026671;28;19971;-62
2021/10/11 11:38:55;;;;;;;;;;;;;;;;;;5027483;28;20284;-62
2021/10/11 11:41:22;;;;;;;;;;;;;;;;;;5020898;28;19940;-62
2021/10/11 11:43:49;;;;;;;;;;;;;;;;;;5025148;28;19936;-59
2021/10/11 11:46:16;;;;;;;;;;;;;;;;;;5026084;28;19929;-62
2021/10/11 11:48:43;;;;;;;;;;;;;;;;;;5027197;28;19935;-62
2021/10/11 11:51:10;;;;;;;;;;;;;;;;;;5025328;28;19933;-62
2021/10/11 11:53:37;;;;;;;;;;;;;;;;;;5027540;28;19955;-61
2021/10/11 11:56:04;;;;;;;;;;;;;;;;;;5025885;28;19925;-62
2021/10/11 11:58:31;;;;;;;;;;;;;;;;;;5021512;28;19929;-59
2021/10/11 12:00:58;;;;;;;;;;;;;;;;;;5022415;28;19925;-60
2021/10/11 12:03:25;;;;;;;;;;;;;;;;;;5026607;28;19925;-55
2021/10/11 12:05:52;;;;;;;;;;;;;;;;;;5022330;28;20494;-59
2021/10/11 12:08:19;;;;;;;;;;;;;;;;;;5024062;28;19925;-61
2021/10/11 12:10:46;;;;;;;;;;;;;;;;;;5023718;28;20284;-62
2021/10/11 12:13:13;;;;;;;;;;;;;;;;;;5029009;28;20388;-61
2021/10/11 12:15:40;;;;;;;;;;;;;;;;;;5025425;28;19925;-62
2021/10/11 12:18:07;;;;;;;;;;;;;;;;;;5023980;28;19934;-62
2021/10/11 12:20:34;;;;;;;;;;;;;;;;;;5026304;28;20012;-61
2021/10/11 12:23:01;;;;;;;;;;;;;;;;;;5022594;28;19937;-63
2021/10/11 12:25:28;;;;;;;;;;;;;;;;;;5025396;28;20381;-62
2021/10/11 12:27:55;;;;;;;;;;;;;;;;;;5024405;28;20446;-62
2021/10/11 12:30:22;;;;;;;;;;;;;;;;;;5028375;28;19935;-62
2021/10/11 12:32:49;;;;;;;;;;;;;;;;;;5024600;28;19925;-62
2021/10/11 12:35:16;;;;;;;;;;;;;;;;;;5025915;28;20320;-62
2021/10/11 12:37:46;;;;;;;;;;;;;;;;;;5023184;28;19929;-62
2021/10/11 12:40:13;;;;;;;;;;;;;;;;;;5026650;28;19931;-60
2021/10/11 12:42:41;;;;;;;;;;;;;;;;;;5026745;28;20297;-62
2021/10/11 12:45:10;;;;;;;;;;;;;;;;;;5026965;28;19925;-62
2021/10/11 12:47:38;;;;;;;;;;;;;;;;;;5023269;28;19966;-62
2021/10/11 12:50:05;;;;;;;;;;;;;;;;;;5023338;28;19940;-62
2021/10/11 12:52:32;;;;;;;;;;;;;;;;;;5023304;28;19964;-60
2021/10/11 12:54:59;;;;;;;;;;;;;;;;;;5023918;28;19933;-62
2021/10/11 12:57:29;;;;;;;;;;;;;;;;;;5020428;28;19925;-62
2021/10/11 12:59:56;;;;;;;;;;;;;;;;;;5021712;28;20006;-62
2021/10/11 13:02:22;;;;;;;;;;;;;;;;;;5026677;28;19926;-62
2021/10/11 13:04:49;;;;;;;;;;;;;;;;;;5023678;28;19971;-62
2021/10/11 13:07:18;;;;;;;;;;;;;;;;;;5022971;28;19925;-62
2021/10/11 13:09:45;;;;;;;;;;;;;;;;;;5025227;28;19936;-63
2021/10/11 13:12:12;;;;;;;;;;;;;;;;;;5026527;28;20377;-63
2021/10/11 13:14:39;;;;;;;;;;;;;;;;;;5026394;28;19933;-63
2021/10/11 13:17:06;;;;;;;;;;;;;;;;;;5024790;28;19925;-63
2021/10/11 13:19:35;;;;;;;;;;;;;;;;;;5024085;28;19926;-63
2021/10/11 13:22:02;;;;;;;;;;;;;;;;;;5023364;28;20019;-63
2021/10/11 13:24:29;;;;;;;;;;;;;;;;;;5027634;28;19925;-63
2021/10/11 13:26:56;;;;;;;;;;;;;;;;;;5025261;28;19933;-63
2021/10/11 14:27:40;;;;;;;;;;;;;;;;;;5021826;28;19951;-62
2021/10/11 14:30:11;;;;;;;;;;;;;;;;;;5024798;28;19932;-62
2021/10/11 14:32:57;;;;;;;;;;;;;;;;;;5025797;28;19925;-61
2021/10/11 16:00:30;;;;;;;;;;;;;;;;;;5024655;28;19921;-70
2021/10/11 16:03:04;;;;;;;;;;;;;;;;;;5028549;28;20993;-70
2021/10/11 16:05:31;;;;;;;;;;;;;;;;;;5029071;28;20076;-70
2021/10/11 16:07:58;;;;;;;;;;;;;;;;;;5027767;28;19925;-70
2021/10/11 16:10:25;;;;;;;;;;;;;;;;;;5027370;28;20317;-71
2021/10/11 16:12:52;;;;;;;;;;;;;;;;;;5029857;28;19972;-70
2021/10/11 16:15:19;;;;;;;;;;;;;;;;;;5026786;28;20016;-70
2021/10/11 16:17:46;;;;;;;;;;;;;;;;;;5030506;28;19925;-70
2021/10/11 16:20:13;;;;;;;;;;;;;;;;;;5026831;28;20023;-70
2021/10/11 16:22:40;;;;;;;;;;;;;;;;;;5036385;28;19925;-70
2021/10/11 16:25:07;;;;;;;;;;;;;;;;;;5040437;28;20379;-70
2021/10/11 16:27:34;;;;;;;;;;;;;;;;;;5024857;28;21987;-70
2021/10/11 16:30:01;;;;;;;;;;;;;;;;;;5022991;28;20333;-71
2021/10/11 16:32:28;;;;;;;;;;;;;;;;;;5023922;28;19935;-70
2021/10/11 16:34:55;;;;;;;;;;;;;;;;;;5024246;28;19968;-70
2021/10/11 16:37:22;;;;;;;;;;;;;;;;;;5026420;28;20527;-69
2021/10/11 16:39:49;;;;;;;;;;;;;;;;;;5023934;28;20020;-71
2021/10/11 16:42:16;;;;;;;;;;;;;;;;;;5025940;28;20377;-71
2021/10/11 16:44:43;;;;;;;;;;;;;;;;;;5026541;28;19925;-70
2021/10/11 16:47:10;;;;;;;;;;;;;;;;;;5027022;28;19993;-70
2021/10/11 16:49:40;;;;;;;;;;;;;;;;;;5027885;28;19951;-70
2021/10/11 16:52:07;;;;;;;;;;;;;;;;;;5026961;28;19925;-71
2021/10/11 16:54:34;;;;;;;;;;;;;;;;;;5025778;28;19932;-70
2021/10/11 16:57:01;;;;;;;;;;;;;;;;;;5026657;28;19925;-71
2021/10/11 16:59:28;;;;;;;;;;;;;;;;;;5027079;28;19936;-71
2021/10/11 17:01:55;;;;;;;;;;;;;;;;;;5033694;28;19925;-70
2021/10/11 17:04:22;;;;;;;;;;;;;;;;;;5030718;28;19933;-70
2021/10/11 17:06:49;;;;;;;;;;;;;;;;;;5046468;28;19956;-69
2021/10/11 17:09:16;;;;;;;;;;;;;;;;;;5033546;28;19925;-71
2021/10/11 17:11:44;;;;;;;;;;;;;;;;;;5023153;28;19961;-72
2021/10/11 17:14:11;;;;;;;;;;;;;;;;;;5028685;28;19971;-71
2021/10/11 17:16:38;;;;;;;;;;;;;;;;;;5027566;28;19936;-71
2021/10/11 17:19:06;;;;;;;;;;;;;;;;;;5027415;28;20504;-70
2021/10/11 17:21:33;;;;;;;;;;;;;;;;;;5028391;28;19975;-71
2021/10/11 17:24:01;;;;;;;;;;;;;;;;;;5026962;28;20016;-70
2021/10/11 17:26:28;;;;;;;;;;;;;;;;;;5024180;28;19979;-70
2021/10/11 17:28:55;;;;;;;;;;;;;;;;;;5022439;28;20382;-70
2021/10/11 17:31:22;;;;;;;;;;;;;;;;;;5023798;28;20012;-70
2021/10/11 17:33:49;;;;;;;;;;;;;;;;;;5024556;28;19929;-70
2021/10/11 17:36:16;;;;;;;;;;;;;;;;;;5023333;28;20015;-70
2021/10/11 17:38:43;;;;;;;;;;;;;;;;;;5030781;28;19929;-70
2021/10/11 17:41:12;;;;;;;;;;;;;;;;;;5025081;28;19926;-70
2021/10/11 17:43:42;;;;;;;;;;;;;;;;;;5027032;28;19956;-70
2021/10/11 17:46:09;;;;;;;;;;;;;;;;;;5030198;28;20529;-69
2021/10/11 17:48:36;;;;;;;;;;;;;;;;;;5029986;28;20312;-69
2021/10/11 17:51:05;;;;;;;;;;;;;;;;;;5028699;28;19935;-73
2021/10/11 17:53:32;;;;;;;;;;;;;;;;;;5030121;28;20209;-70
2021/10/11 17:55:59;;;;;;;;;;;;;;;;;;5029316;28;19925;-71
2021/10/11 17:58:26;;;;;;;;;;;;;;;;;;5030819;28;19935;-71
2021/10/11 18:00:53;;;;;;;;;;;;;;;;;;5032363;28;20015;-71
2021/10/11 18:03:20;;;;;;;;;;;;;;;;;;5032796;28;19925;-71
2021/10/11 18:05:47;;;;;;;;;;;;;;;;;;5030000;28;19980;-71
2021/10/11 18:08:14;;;;;;;;;;;;;;;;;;5033500;28;19925;-72
2021/10/11 18:10:41;;;;;;;;;;;;;;;;;;5031267;28;20012;-73
2021/10/11 18:13:08;;;;;;;;;;;;;;;;;;5029253;28;19975;-71
2021/10/11 18:15:35;;;;;;;;;;;;;;;;;;5030257;28;20018;-72
2021/10/11 18:18:03;;;;;;;;;;;;;;;;;;5031370;28;19925;-72
2021/10/11 18:20:31;;;;;;;;;;;;;;;;;;5027229;28;19972;-71
2021/10/11 18:22:58;;;;;;;;;;;;;;;;;;5028116;28;19925;-72
2021/10/11 18:25:25;;;;;;;;;;;;;;;;;;5030338;28;20761;-70
2021/10/11 18:27:52;;;;;;;;;;;;;;;;;;5030947;28;20440;-70
2021/10/11 18:30:20;;;;;;;;;;;;;;;;;;5024106;28;20012;-72
2021/10/11 18:32:47;;;;;;;;;;;;;;;;;;5020943;28;20379;-73
2021/10/11 18:35:14;;;;;;;;;;;;;;;;;;5021911;28;19929;-69
2021/10/11 18:37:41;;;;;;;;;;;;;;;;;;5022806;28;19925;-72
2021/10/11 18:40:10;;;;;;;;;;;;;;;;;;5021002;28;20281;-70
2021/10/11 18:42:38;;;;;;;;;;;;;;;;;;5023426;28;19932;-71
2021/10/11 18:45:05;;;;;;;;;;;;;;;;;;5022071;28;19964;-71
2021/10/11 18:47:32;;;;;;;;;;;;;;;;;;5021702;28;19953;-70
2021/10/11 18:49:59;;;;;;;;;;;;;;;;;;5026028;28;19929;-72
2021/10/11 18:52:26;;;;;;;;;;;;;;;;;;5018994;28;19939;-71
2021/10/11 18:54:56;;;;;;;;;;;;;;;;;;5020547;28;19977;-71
2021/10/11 18:57:23;;;;;;;;;;;;;;;;;;5021265;28;19933;-71
2021/10/11 18:59:50;;;;;;;;;;;;;;;;;;5021266;28;19987;-73
2021/10/11 19:02:17;;;;;;;;;;;;;;;;;;5020192;28;19925;-72
2021/10/11 19:04:44;;;;;;;;;;;;;;;;;;5019837;28;19939;-72
2021/10/11 19:07:11;;;;;;;;;;;;;;;;;;5022135;28;20534;-71
2021/10/11 19:09:38;;;;;;;;;;;;;;;;;;5020657;28;20020;-73